Air Navigation Services of Czech Republic
Airport: LKMT Updated:  23.09.2018 23:31:06  UTC
 METAR LKMT 23.09. 23:30 ...
METAR LKMT 232330Z 20019KT 9999 -RA NSC 15/13 Q1004 NOSIG RMK REG QNH 0997=
 TAF LKMT 23.09. 23:00 ...
TAF LKMT 232300Z 2400/2506 22016G26KT 9999 -RA BKN035      BECMG 2400/2402 34013KT      TEMPO 2402/2500 35020KT 9000 -SHRA BKN020TCU=